sensor_id;sensor_type;location;lat;lon;timestamp;pressure;altitude;pressure_sealevel;temperature;humidity
46448;BME280;32145;50.390;30.778;2023-04-07T00:02:08;99974.91;;;5.89;75.99
46448;BME280;32145;50.390;30.778;2023-04-07T00:05:05;99971.63;;;5.87;75.94
46448;BME280;32145;50.390;30.778;2023-04-07T00:08:01;99972.59;;;5.79;75.56
46448;BME280;32145;50.390;30.778;2023-04-07T00:10:56;99967.00;;;5.74;75.56
46448;BME280;32145;50.390;30.778;2023-04-07T00:13:51;99977.34;;;5.71;74.96
46448;BME280;32145;50.390;30.778;2023-04-07T00:16:45;99975.22;;;5.66;75.34
46448;BME280;32145;50.390;30.778;2023-04-07T00:19:40;99978.16;;;5.71;74.60
46448;BME280;32145;50.390;30.778;2023-04-07T00:22:36;99976.72;;;5.75;75.46
46448;BME280;32145;50.390;30.778;2023-04-07T00:25:32;99976.09;;;5.73;74.86
46448;BME280;32145;50.390;30.778;2023-04-07T00:28:29;99986.44;;;5.76;75.62
46448;BME280;32145;50.390;30.778;2023-04-07T00:31:26;99983.13;;;5.74;75.13
46448;BME280;32145;50.390;30.778;2023-04-07T00:34:22;99982.09;;;5.75;74.90
46448;BME280;32145;50.390;30.778;2023-04-07T00:37:19;99985.44;;;5.77;75.31
46448;BME280;32145;50.390;30.778;2023-04-07T00:40:16;99985.63;;;5.76;75.32
46448;BME280;32145;50.390;30.778;2023-04-07T00:43:12;99986.88;;;5.73;75.07
46448;BME280;32145;50.390;30.778;2023-04-07T00:46:06;99986.88;;;5.73;75.10
46448;BME280;32145;50.390;30.778;2023-04-07T00:49:02;99985.19;;;5.72;75.10
46448;BME280;32145;50.390;30.778;2023-04-07T00:51:57;99988.44;;;5.61;74.58
46448;BME280;32145;50.390;30.778;2023-04-07T00:54:52;99992.06;;;5.46;74.58
46448;BME280;32145;50.390;30.778;2023-04-07T00:57:46;100001.41;;;5.50;74.92
46448;BME280;32145;50.390;30.778;2023-04-07T01:00:44;99996.03;;;5.50;74.36
46448;BME280;32145;50.390;30.778;2023-04-07T01:03:45;100002.19;;;5.44;73.90
46448;BME280;32145;50.390;30.778;2023-04-07T01:06:46;100009.88;;;5.47;74.30
46448;BME280;32145;50.390;30.778;2023-04-07T01:09:45;100010.91;;;5.46;74.14
46448;BME280;32145;50.390;30.778;2023-04-07T01:12:45;100012.56;;;5.47;74.00
46448;BME280;32145;50.390;30.778;2023-04-07T01:15:41;100018.72;;;5.41;74.09
46448;BME280;32145;50.390;30.778;2023-04-07T01:18:39;100016.66;;;5.43;74.02
46448;BME280;32145;50.390;30.778;2023-04-07T01:21:38;100018.47;;;5.36;74.13
46448;BME280;32145;50.390;30.778;2023-04-07T01:24:57;100023.84;;;5.36;73.19
46448;BME280;32145;50.390;30.778;2023-04-07T01:28:14;100019.88;;;5.32;72.92
46448;BME280;32145;50.390;30.778;2023-04-07T01:31:25;100030.63;;;5.32;73.08
46448;BME280;32145;50.390;30.778;2023-04-07T01:34:23;100025.44;;;5.30;73.22
46448;BME280;32145;50.390;30.778;2023-04-07T01:37:19;100034.13;;;5.25;72.65
46448;BME280;32145;50.390;30.778;2023-04-07T01:40:14;100036.81;;;5.25;72.74
46448;BME280;32145;50.390;30.778;2023-04-07T01:43:09;100035.78;;;5.26;72.96
46448;BME280;32145;50.390;30.778;2023-04-07T01:46:07;100034.50;;;5.22;72.28
46448;BME280;32145;50.390;30.778;2023-04-07T01:49:05;100030.34;;;5.20;71.98
46448;BME280;32145;50.390;30.778;2023-04-07T01:52:03;100037.16;;;5.15;71.88
46448;BME280;32145;50.390;30.778;2023-04-07T01:54:58;100043.13;;;5.18;71.83
46448;BME280;32145;50.390;30.778;2023-04-07T01:57:52;100040.91;;;5.21;71.98
46448;BME280;32145;50.390;30.778;2023-04-07T02:00:47;100044.88;;;5.25;72.14
46448;BME280;32145;50.390;30.778;2023-04-07T02:03:46;100044.03;;;5.25;71.80
46448;BME280;32145;50.390;30.778;2023-04-07T02:06:48;100043.66;;;5.28;71.70
46448;BME280;32145;50.390;30.778;2023-04-07T02:09:45;100044.22;;;5.23;72.08
46448;BME280;32145;50.390;30.778;2023-04-07T02:12:41;100046.72;;;5.25;71.80
46448;BME280;32145;50.390;30.778;2023-04-07T02:15:40;100047.81;;;5.31;72.28
46448;BME280;32145;50.390;30.778;2023-04-07T02:18:37;100049.47;;;5.32;72.02
46448;BME280;32145;50.390;30.778;2023-04-07T02:21:34;100048.19;;;5.27;72.15
46448;BME280;32145;50.390;30.778;2023-04-07T02:24:32;100041.53;;;5.23;71.99
46448;BME280;32145;50.390;30.778;2023-04-07T02:27:28;100057.81;;;5.15;71.60
46448;BME280;32145;50.390;30.778;2023-04-07T02:30:25;100057.63;;;5.16;71.81
46448;BME280;32145;50.390;30.778;2023-04-07T02:33:22;100056.56;;;5.18;71.88
46448;BME280;32145;50.390;30.778;2023-04-07T02:36:18;100055.13;;;5.15;71.80
46448;BME280;32145;50.390;30.778;2023-04-07T02:39:15;100057.50;;;5.03;71.96
46448;BME280;32145;50.390;30.778;2023-04-07T02:42:13;100069.44;;;5.00;71.84
46448;BME280;32145;50.390;30.778;2023-04-07T02:45:10;100071.13;;;5.01;72.40
46448;BME280;32145;50.390;30.778;2023-04-07T02:48:06;100073.16;;;4.99;72.04
46448;BME280;32145;50.390;30.778;2023-04-07T02:51:03;100073.16;;;4.99;72.21
46448;BME280;32145;50.390;30.778;2023-04-07T02:53:57;100073.34;;;4.98;72.02
46448;BME280;32145;50.390;30.778;2023-04-07T02:56:52;100083.84;;;4.93;71.89
46448;BME280;32145;50.390;30.778;2023-04-07T02:59:47;100089.78;;;4.88;72.22
46448;BME280;32145;50.390;30.778;2023-04-07T03:02:42;100088.97;;;4.87;72.35
46448;BME280;32145;50.390;30.778;2023-04-07T03:05:36;100091.84;;;4.86;72.49
46448;BME280;32145;50.390;30.778;2023-04-07T03:08:31;100095.28;;;4.80;72.41
46448;BME280;32145;50.390;30.778;2023-04-07T03:11:28;100098.63;;;4.82;72.50
46448;BME280;32145;50.390;30.778;2023-04-07T03:14:24;100101.94;;;4.84;72.72
46448;BME280;32145;50.390;30.778;2023-04-07T03:17:22;100102.13;;;4.82;72.64
46448;BME280;32145;50.390;30.778;2023-04-07T03:20:18;100107.06;;;4.79;72.99
46448;BME280;32145;50.390;30.778;2023-04-07T03:23:14;100104.31;;;4.72;72.87
46448;BME280;32145;50.390;30.778;2023-04-07T03:26:10;100105.09;;;4.72;72.83
46448;BME280;32145;50.390;30.778;2023-04-07T03:29:07;100103.81;;;4.68;73.19
46448;BME280;32145;50.390;30.778;2023-04-07T03:32:01;100105.22;;;4.64;73.22
46448;BME280;32145;50.390;30.778;2023-04-07T03:34:59;100118.03;;;4.62;73.44
46448;BME280;32145;50.390;30.778;2023-04-07T03:37:55;100122.75;;;4.60;73.51
46448;BME280;32145;50.390;30.778;2023-04-07T03:40:51;100119.44;;;4.58;73.61
46448;BME280;32145;50.390;30.778;2023-04-07T03:43:48;100130.16;;;4.58;73.76
46448;BME280;32145;50.390;30.778;2023-04-07T03:46:44;100135.53;;;4.58;73.77
46448;BME280;32145;50.390;30.778;2023-04-07T03:49:40;100131.81;;;4.59;73.80
46448;BME280;32145;50.390;30.778;2023-04-07T03:52:38;100136.81;;;4.62;73.97
46448;BME280;32145;50.390;30.778;2023-04-07T03:55:35;100143.19;;;4.61;74.05
46448;BME280;32145;50.390;30.778;2023-04-07T03:58:31;100142.56;;;4.59;73.96
46448;BME280;32145;50.390;30.778;2023-04-07T04:01:28;100145.44;;;4.57;73.94
46448;BME280;32145;50.390;30.778;2023-04-07T04:04:24;100154.34;;;4.58;74.09
46448;BME280;32145;50.390;30.778;2023-04-07T04:07:18;100156.84;;;4.59;74.17
46448;BME280;32145;50.390;30.778;2023-04-07T04:10:14;100162.84;;;4.61;74.17
46448;BME280;32145;50.390;30.778;2023-04-07T04:13:08;100162.19;;;4.59;74.29
46448;BME280;32145;50.390;30.778;2023-04-07T04:16:03;100167.75;;;4.58;73.86
46448;BME280;32145;50.390;30.778;2023-04-07T04:18:58;100170.25;;;4.59;73.78
46448;BME280;32145;50.390;30.778;2023-04-07T04:21:52;100169.88;;;4.62;73.86
46448;BME280;32145;50.390;30.778;2023-04-07T04:24:49;100172.72;;;4.61;73.76
46448;BME280;32145;50.390;30.778;2023-04-07T04:27:46;100176.06;;;4.63;73.49
46448;BME280;32145;50.390;30.778;2023-04-07T04:30:41;100187.84;;;4.62;73.48
46448;BME280;32145;50.390;30.778;2023-04-07T04:33:35;100185.53;;;4.59;73.33
46448;BME280;32145;50.390;30.778;2023-04-07T04:36:29;100184.88;;;4.57;73.01
46448;BME280;32145;50.390;30.778;2023-04-07T04:39:24;100184.69;;;4.43;72.88
46448;BME280;32145;50.390;30.778;2023-04-07T04:42:18;100186.94;;;4.40;72.81
46448;BME280;32145;50.390;30.778;2023-04-07T04:45:13;100185.38;;;4.45;72.90
46448;BME280;32145;50.390;30.778;2023-04-07T04:48:10;100196.56;;;4.49;72.85
46448;BME280;32145;50.390;30.778;2023-04-07T04:51:06;100192.03;;;4.49;72.94
46448;BME280;32145;50.390;30.778;2023-04-07T04:54:02;100197.28;;;4.58;72.62
46448;BME280;32145;50.390;30.778;2023-04-07T04:56:59;100210.25;;;4.69;72.69
46448;BME280;32145;50.390;30.778;2023-04-07T04:59:55;100213.41;;;4.73;72.27
46448;BME280;32145;50.390;30.778;2023-04-07T05:02:53;100211.56;;;4.73;72.17
46448;BME280;32145;50.390;30.778;2023-04-07T05:05:50;100207.09;;;4.66;71.50
46448;BME280;32145;50.390;30.778;2023-04-07T05:08:46;100218.19;;;4.62;71.84
46448;BME280;32145;50.390;30.778;2023-04-07T05:11:42;100215.81;;;4.68;71.42
46448;BME280;32145;50.390;30.778;2023-04-07T05:14:38;100229.31;;;4.89;71.57
46448;BME280;32145;50.390;30.778;2023-04-07T05:17:35;100230.03;;;4.98;71.19
46448;BME280;32145;50.390;30.778;2023-04-07T05:20:33;100234.28;;;5.08;70.59
46448;BME280;32145;50.390;30.778;2023-04-07T05:23:29;100242.88;;;5.18;70.37
46448;BME280;32145;50.390;30.778;2023-04-07T05:26:25;100240.81;;;5.20;69.93
46448;BME280;32145;50.390;30.778;2023-04-07T05:29:22;100250.28;;;5.16;69.69
46448;BME280;32145;50.390;30.778;2023-04-07T05:32:18;100242.66;;;5.35;69.85
46448;BME280;32145;50.390;30.778;2023-04-07T05:35:14;100253.16;;;5.51;69.22
46448;BME280;32145;50.390;30.778;2023-04-07T05:38:12;100257.63;;;5.44;69.29
46448;BME280;32145;50.390;30.778;2023-04-07T05:41:09;100250.47;;;5.51;69.29
46448;BME280;32145;50.390;30.778;2023-04-07T05:44:05;100258.25;;;5.24;68.96
46448;BME280;32145;50.390;30.778;2023-04-07T05:47:01;100264.75;;;5.15;69.10
46448;BME280;32145;50.390;30.778;2023-04-07T05:49:57;100266.53;;;5.23;69.09
46448;BME280;32145;50.390;30.778;2023-04-07T05:52:54;100263.25;;;5.27;68.61
46448;BME280;32145;50.390;30.778;2023-04-07T05:55:51;100269.97;;;5.38;68.85
46448;BME280;32145;50.390;30.778;2023-04-07T05:58:48;100268.19;;;5.61;69.15
46448;BME280;32145;50.390;30.778;2023-04-07T06:01:44;100275.41;;;5.82;68.96
46448;BME280;32145;50.390;30.778;2023-04-07T06:04:40;100282.00;;;6.01;68.86
46448;BME280;32145;50.390;30.778;2023-04-07T06:07:37;100281.53;;;6.13;68.35
46448;BME280;32145;50.390;30.778;2023-04-07T06:10:33;100285.16;;;6.27;68.71
46448;BME280;32145;50.390;30.778;2023-04-07T06:13:31;100288.78;;;6.41;67.93
46448;BME280;32145;50.390;30.778;2023-04-07T06:16:27;100278.81;;;6.41;67.56
46448;BME280;32145;50.390;30.778;2023-04-07T06:19:23;100288.88;;;6.54;67.13
46448;BME280;32145;50.390;30.778;2023-04-07T06:22:20;100293.56;;;6.74;67.45
46448;BME280;32145;50.390;30.778;2023-04-07T06:25:16;100297.34;;;6.87;67.79
46448;BME280;32145;50.390;30.778;2023-04-07T06:28:12;100301.56;;;6.96;66.95
46448;BME280;32145;50.390;30.778;2023-04-07T06:31:10;100298.03;;;6.95;66.66
46448;BME280;32145;50.390;30.778;2023-04-07T06:34:06;100296.56;;;6.93;66.23
46448;BME280;32145;50.390;30.778;2023-04-07T06:37:03;100297.72;;;6.77;65.01
46448;BME280;32145;50.390;30.778;2023-04-07T06:39:59;100302.09;;;6.78;65.09
46448;BME280;32145;50.390;30.778;2023-04-07T06:42:55;100299.00;;;6.88;65.86
46448;BME280;32145;50.390;30.778;2023-04-07T06:45:50;100309.84;;;6.94;65.60
46448;BME280;32145;50.390;30.778;2023-04-07T06:48:45;100304.50;;;7.01;64.90
46448;BME280;32145;50.390;30.778;2023-04-07T06:51:39;100309.94;;;7.15;65.24
46448;BME280;32145;50.390;30.778;2023-04-07T06:54:34;100313.72;;;7.27;65.13
46448;BME280;32145;50.390;30.778;2023-04-07T06:57:28;100311.28;;;7.32;64.73
46448;BME280;32145;50.390;30.778;2023-04-07T07:00:23;100318.09;;;7.28;64.09
46448;BME280;32145;50.390;30.778;2023-04-07T07:03:17;100321.88;;;7.41;64.61
46448;BME280;32145;50.390;30.778;2023-04-07T07:06:12;100317.00;;;7.65;65.00
46448;BME280;32145;50.390;30.778;2023-04-07T07:09:07;100315.56;;;7.82;64.57
46448;BME280;32145;50.390;30.778;2023-04-07T07:12:01;100323.44;;;7.77;63.15
46448;BME280;32145;50.390;30.778;2023-04-07T07:14:55;100321.75;;;7.63;63.18
46448;BME280;32145;50.390;30.778;2023-04-07T07:17:50;100321.75;;;7.63;62.33
46448;BME280;32145;50.390;30.778;2023-04-07T07:20:44;100327.97;;;7.56;62.30
46448;BME280;32145;50.390;30.778;2023-04-07T07:23:42;100332.97;;;7.59;62.47
46448;BME280;32145;50.390;30.778;2023-04-07T07:26:38;100320.06;;;7.48;61.58
46448;BME280;32145;50.390;30.778;2023-04-07T07:29:34;100332.50;;;7.49;62.01
46448;BME280;32145;50.390;30.778;2023-04-07T07:32:31;100331.75;;;7.69;62.47
46448;BME280;32145;50.390;30.778;2023-04-07T07:35:27;100339.66;;;7.77;61.97
46448;BME280;32145;50.390;30.778;2023-04-07T07:38:23;100339.19;;;7.67;61.42
46448;BME280;32145;50.390;30.778;2023-04-07T07:41:21;100343.97;;;7.65;62.43
46448;BME280;32145;50.390;30.778;2023-04-07T07:44:17;100348.38;;;7.79;62.02
46448;BME280;32145;50.390;30.778;2023-04-07T07:47:13;100339.66;;;7.77;62.07
46448;BME280;32145;50.390;30.778;2023-04-07T07:50:10;100350.03;;;7.80;61.95
46448;BME280;32145;50.390;30.778;2023-04-07T07:53:06;100349.66;;;7.90;61.39
46448;BME280;32145;50.390;30.778;2023-04-07T07:56:00;100350.09;;;8.14;62.06
46448;BME280;32145;50.390;30.778;2023-04-07T07:58:55;100343.91;;;8.41;61.85
46448;BME280;32145;50.390;30.778;2023-04-07T08:01:50;100348.91;;;8.64;61.53
46448;BME280;32145;50.390;30.778;2023-04-07T08:04:44;100340.13;;;8.82;61.79
46448;BME280;32145;50.390;30.778;2023-04-07T08:07:41;100343.00;;;9.14;61.91
46448;BME280;32145;50.390;30.778;2023-04-07T08:10:37;100347.38;;;9.02;58.90
46448;BME280;32145;50.390;30.778;2023-04-07T08:13:31;100338.69;;;8.93;59.68
46448;BME280;32145;50.390;30.778;2023-04-07T08:16:27;100338.00;;;9.18;60.09
46448;BME280;32145;50.390;30.778;2023-04-07T08:19:21;100342.25;;;9.46;60.58
46448;BME280;32145;50.390;30.778;2023-04-07T08:22:15;100346.72;;;9.73;59.76
46448;BME280;32145;50.390;30.778;2023-04-07T08:25:10;100347.31;;;9.82;58.88
46448;BME280;32145;50.390;30.778;2023-04-07T08:28:04;100345.03;;;9.78;58.55
46448;BME280;32145;50.390;30.778;2023-04-07T08:31:00;100349.75;;;9.90;59.29
46448;BME280;32145;50.390;30.778;2023-04-07T08:33:58;100352.88;;;9.87;57.55
46448;BME280;32145;50.390;30.778;2023-04-07T08:36:54;100349.03;;;9.69;58.14
46448;BME280;32145;50.390;30.778;2023-04-07T08:39:50;100350.47;;;9.72;58.11
46448;BME280;32145;50.390;30.778;2023-04-07T08:42:47;100353.34;;;9.77;57.77
46448;BME280;32145;50.390;30.778;2023-04-07T08:45:42;100351.94;;;9.67;58.12
46448;BME280;32145;50.390;30.778;2023-04-07T08:48:38;100355.81;;;9.85;57.86
46448;BME280;32145;50.390;30.778;2023-04-07T08:51:35;100359.47;;;9.98;57.94
46448;BME280;32145;50.390;30.778;2023-04-07T08:54:30;100357.50;;;9.86;56.27
46448;BME280;32145;50.390;30.778;2023-04-07T08:57:25;100349.63;;;9.78;56.12
46448;BME280;32145;50.390;30.778;2023-04-07T09:00:21;100348.13;;;9.82;56.72
46448;BME280;32145;50.390;30.778;2023-04-07T09:03:18;100346.91;;;9.78;56.19
46448;BME280;32145;50.390;30.778;2023-04-07T09:06:14;100355.25;;;9.76;55.96
46448;BME280;32145;50.390;30.778;2023-04-07T09:09:12;100357.63;;;9.98;56.56
46448;BME280;32145;50.390;30.778;2023-04-07T09:12:08;100358.53;;;10.17;57.00
46448;BME280;32145;50.390;30.778;2023-04-07T09:15:06;100361.97;;;10.31;56.05
46448;BME280;32145;50.390;30.778;2023-04-07T09:18:03;100359.03;;;10.33;55.92
46448;BME280;32145;50.390;30.778;2023-04-07T09:21:00;100351.69;;;10.40;55.62
46448;BME280;32145;50.390;30.778;2023-04-07T09:23:57;100349.78;;;10.48;54.86
46448;BME280;32145;50.390;30.778;2023-04-07T09:27:11;100356.88;;;10.49;54.08
46448;BME280;32145;50.390;30.778;2023-04-07T09:30:13;100364.19;;;10.48;55.24
46448;BME280;32145;50.390;30.778;2023-04-07T09:33:15;100365.94;;;10.61;55.05
46448;BME280;32145;50.390;30.778;2023-04-07T09:36:11;100366.44;;;10.77;54.82
46448;BME280;32145;50.390;30.778;2023-04-07T09:39:08;100363.44;;;10.85;54.89
46448;BME280;32145;50.390;30.778;2023-04-07T09:42:05;100364.19;;;10.92;54.22
46448;BME280;32145;50.390;30.778;2023-04-07T09:45:01;100362.25;;;11.00;54.72
46448;BME280;32145;50.390;30.778;2023-04-07T09:47:55;100359.16;;;11.15;54.76
46448;BME280;32145;50.390;30.778;2023-04-07T09:51:04;100356.47;;;11.33;53.05
46448;BME280;32145;50.390;30.778;2023-04-07T09:54:00;100353.75;;;11.52;54.49
46448;BME280;32145;50.390;30.778;2023-04-07T09:56:57;100353.06;;;11.57;52.75
46448;BME280;32145;50.390;30.778;2023-04-07T09:59:55;100352.34;;;11.62;53.15
46448;BME280;32145;50.390;30.778;2023-04-07T10:02:54;100351.00;;;11.71;53.33
46448;BME280;32145;50.390;30.778;2023-04-07T10:05:51;100357.41;;;11.77;53.50
46448;BME280;32145;50.390;30.778;2023-04-07T10:08:48;100355.16;;;11.73;52.03
46448;BME280;32145;50.390;30.778;2023-04-07T10:11:44;100356.81;;;11.86;53.00
46448;BME280;32145;50.390;30.778;2023-04-07T10:14:41;100369.72;;;12.10;53.24
46448;BME280;32145;50.390;30.778;2023-04-07T10:17:39;100363.50;;;12.21;52.91
46448;BME280;32145;50.390;30.778;2023-04-07T10:20:38;100365.97;;;12.23;53.96
46448;BME280;32145;50.390;30.778;2023-04-07T10:23:52;100365.25;;;12.28;54.43
46448;BME280;32145;50.390;30.778;2023-04-07T10:26:54;100364.81;;;12.31;54.99
46448;BME280;32145;50.390;30.778;2023-04-07T10:29:51;100363.34;;;12.16;54.77
46448;BME280;32145;50.390;30.778;2023-04-07T10:32:51;100366.56;;;11.94;54.52
46448;BME280;32145;50.390;30.778;2023-04-07T10:36:05;100366.28;;;11.84;53.91
46448;BME280;32145;50.390;30.778;2023-04-07T10:39:19;100371.91;;;11.70;54.73
46448;BME280;32145;50.390;30.778;2023-04-07T10:42:43;100369.28;;;11.64;53.91
46448;BME280;32145;50.390;30.778;2023-04-07T10:45:55;100369.50;;;11.62;53.78
46448;BME280;32145;50.390;30.778;2023-04-07T10:49:07;100371.28;;;11.68;54.21
46448;BME280;32145;50.390;30.778;2023-04-07T10:52:22;100356.88;;;11.98;54.64
46448;BME280;32145;50.390;30.778;2023-04-07T10:55:34;100367.50;;;12.19;54.27
46448;BME280;32145;50.390;30.778;2023-04-07T10:58:29;100355.00;;;12.30;54.59
46448;BME280;32145;50.390;30.778;2023-04-07T11:01:23;100362.72;;;12.57;54.47
46448;BME280;32145;50.390;30.778;2023-04-07T11:04:17;100362.38;;;12.77;53.49
46448;BME280;32145;50.390;30.778;2023-04-07T11:07:13;100365.22;;;12.70;53.19
46448;BME280;32145;50.390;30.778;2023-04-07T11:10:10;100356.59;;;12.73;52.67
46448;BME280;32145;50.390;30.778;2023-04-07T11:13:06;100353.03;;;12.85;52.24
46448;BME280;32145;50.390;30.778;2023-04-07T11:16:02;100359.06;;;12.99;52.76
46448;BME280;32145;50.390;30.778;2023-04-07T11:18:58;100358.22;;;12.98;52.71
46448;BME280;32145;50.390;30.778;2023-04-07T11:22:12;100349.13;;;12.81;52.21
46448;BME280;32145;50.390;30.778;2023-04-07T11:25:22;100359.75;;;12.46;51.89
46448;BME280;32145;50.390;30.778;2023-04-07T11:28:18;100352.00;;;12.19;52.49
46448;BME280;32145;50.390;30.778;2023-04-07T11:31:20;100354.84;;;12.13;52.50
46448;BME280;32145;50.390;30.778;2023-04-07T11:34:14;100352.00;;;12.19;52.85
46448;BME280;32145;50.390;30.778;2023-04-07T11:37:18;100350.81;;;12.15;52.71
46448;BME280;32145;50.390;30.778;2023-04-07T11:40:31;100355.50;;;12.08;53.41
46448;BME280;32145;50.390;30.778;2023-04-07T11:43:26;100352.22;;;12.06;53.98
46448;BME280;32145;50.390;30.778;2023-04-07T11:46:20;100349.28;;;12.19;53.60
46448;BME280;32145;50.390;30.778;2023-04-07T11:49:15;100346.09;;;12.10;54.02
46448;BME280;32145;50.390;30.778;2023-04-07T11:52:09;100344.88;;;12.06;54.12
46448;BME280;32145;50.390;30.778;2023-04-07T11:55:04;100347.41;;;12.32;53.23
46448;BME280;32145;50.390;30.778;2023-04-07T11:58:05;100339.91;;;12.58;51.81
46448;BME280;32145;50.390;30.778;2023-04-07T12:01:02;100337.44;;;12.68;50.32
46448;BME280;32145;50.390;30.778;2023-04-07T12:03:58;100342.03;;;12.80;50.71
46448;BME280;32145;50.390;30.778;2023-04-07T12:06:54;100336.47;;;12.86;50.13
46448;BME280;32145;50.390;30.778;2023-04-07T12:10:16;100342.34;;;13.19;50.58
46448;BME280;32145;50.390;30.778;2023-04-07T12:13:14;100336.38;;;13.58;50.75
46448;BME280;32145;50.390;30.778;2023-04-07T12:16:10;100336.94;;;13.89;50.24
46448;BME280;32145;50.390;30.778;2023-04-07T12:19:06;100329.59;;;13.90;49.41
46448;BME280;32145;50.390;30.778;2023-04-07T12:22:03;100341.09;;;13.92;49.25
46448;BME280;32145;50.390;30.778;2023-04-07T12:24:59;100338.25;;;13.87;49.35
46448;BME280;32145;50.390;30.778;2023-04-07T12:27:55;100335.34;;;13.76;49.00
46448;BME280;32145;50.390;30.778;2023-04-07T12:30:53;100335.78;;;13.44;49.52
46448;BME280;32145;50.390;30.778;2023-04-07T12:33:49;100333.22;;;13.13;50.58
46448;BME280;32145;50.390;30.778;2023-04-07T12:36:44;100333.38;;;12.83;51.80
46448;BME280;32145;50.390;30.778;2023-04-07T12:39:38;100334.81;;;12.61;52.59
46448;BME280;32145;50.390;30.778;2023-04-07T12:42:33;100341.06;;;12.50;53.07
46448;BME280;32145;50.390;30.778;2023-04-07T12:45:27;100327.94;;;12.35;52.76
46448;BME280;32145;50.390;30.778;2023-04-07T12:48:25;100331.34;;;12.30;53.23
46448;BME280;32145;50.390;30.778;2023-04-07T12:51:21;100332.78;;;12.33;53.57
46448;BME280;32145;50.390;30.778;2023-04-07T12:54:17;100330.19;;;12.50;53.47
46448;BME280;32145;50.390;30.778;2023-04-07T12:57:14;100334.22;;;12.59;53.27
46448;BME280;32145;50.390;30.778;2023-04-07T13:00:11;100328.78;;;12.71;53.36
46448;BME280;32145;50.390;30.778;2023-04-07T13:03:07;100326.97;;;13.01;52.88
46448;BME280;32145;50.390;30.778;2023-04-07T13:06:05;100333.78;;;13.27;52.20
46448;BME280;32145;50.390;30.778;2023-04-07T13:09:01;100328.81;;;13.48;51.03
46448;BME280;32145;50.390;30.778;2023-04-07T13:11:57;100326.78;;;13.56;50.08
46448;BME280;32145;50.390;30.778;2023-04-07T13:14:54;100327.84;;;13.55;50.43
46448;BME280;32145;50.390;30.778;2023-04-07T13:17:50;100327.50;;;13.51;50.34
46448;BME280;32145;50.390;30.778;2023-04-07T13:20:46;100333.56;;;13.70;50.29
46448;BME280;32145;50.390;30.778;2023-04-07T13:23:44;100327.94;;;13.89;50.32
46448;BME280;32145;50.390;30.778;2023-04-07T13:26:40;100333.66;;;14.04;50.41
46448;BME280;32145;50.390;30.778;2023-04-07T13:29:34;100329.66;;;13.95;50.36
46448;BME280;32145;50.390;30.778;2023-04-07T13:32:29;100327.66;;;13.73;50.60
46448;BME280;32145;50.390;30.778;2023-04-07T13:35:23;100324.28;;;13.42;50.99
46448;BME280;32145;50.390;30.778;2023-04-07T13:38:18;100330.50;;;13.25;51.36
46448;BME280;32145;50.390;30.778;2023-04-07T13:41:15;100340.13;;;13.04;51.64
46448;BME280;32145;50.390;30.778;2023-04-07T13:44:11;100335.75;;;12.91;52.15
46448;BME280;32145;50.390;30.778;2023-04-07T13:47:08;100333.84;;;12.80;51.99
46448;BME280;32145;50.390;30.778;2023-04-07T13:50:05;100334.94;;;12.79;51.99
46448;BME280;32145;50.390;30.778;2023-04-07T13:53:01;100335.78;;;12.79;52.18
46448;BME280;32145;50.390;30.778;2023-04-07T13:55:58;100333.28;;;12.78;52.74
46448;BME280;32145;50.390;30.778;2023-04-07T13:58:56;100345.25;;;12.76;52.67
46448;BME280;32145;50.390;30.778;2023-04-07T14:01:52;100338.38;;;12.86;52.94
46448;BME280;32145;50.390;30.778;2023-04-07T14:04:48;100335.84;;;13.08;52.52
46448;BME280;32145;50.390;30.778;2023-04-07T14:07:44;100331.78;;;13.35;52.07
46448;BME280;32145;50.390;30.778;2023-04-07T14:10:41;100335.91;;;13.49;51.21
46448;BME280;32145;50.390;30.778;2023-04-07T14:13:35;100336.59;;;13.57;51.50
46448;BME280;32145;50.390;30.778;2023-04-07T14:16:30;100335.13;;;13.66;51.02
46448;BME280;32145;50.390;30.778;2023-04-07T14:19:27;100343.91;;;13.68;51.15
46448;BME280;32145;50.390;30.778;2023-04-07T14:22:23;100336.06;;;13.72;50.36
46448;BME280;32145;50.390;30.778;2023-04-07T14:25:19;100335.44;;;13.82;50.33
46448;BME280;32145;50.390;30.778;2023-04-07T14:28:16;100339.63;;;13.72;50.17
46448;BME280;32145;50.390;30.778;2023-04-07T14:31:12;100341.34;;;13.49;50.12
46448;BME280;32145;50.390;30.778;2023-04-07T14:34:10;100341.38;;;13.25;50.11
46448;BME280;32145;50.390;30.778;2023-04-07T14:37:06;100338.81;;;13.19;50.54
46448;BME280;32145;50.390;30.778;2023-04-07T14:40:04;100339.41;;;13.09;50.71
46448;BME280;32145;50.390;30.778;2023-04-07T14:43:01;100342.00;;;13.04;51.35
46448;BME280;32145;50.390;30.778;2023-04-07T14:45:55;100332.19;;;13.02;51.49
46448;BME280;32145;50.390;30.778;2023-04-07T14:48:50;100338.94;;;13.00;51.40
46448;BME280;32145;50.390;30.778;2023-04-07T14:51:48;100328.75;;;13.07;51.55
46448;BME280;32145;50.390;30.778;2023-04-07T14:54:44;100338.19;;;13.28;50.96
46448;BME280;32145;50.390;30.778;2023-04-07T14:57:40;100330.91;;;13.46;50.32
46448;BME280;32145;50.390;30.778;2023-04-07T15:00:37;100338.34;;;13.63;49.93
46448;BME280;32145;50.390;30.778;2023-04-07T15:03:33;100328.81;;;13.77;50.05
46448;BME280;32145;50.390;30.778;2023-04-07T15:06:29;100329.13;;;13.64;50.77
46448;BME280;32145;50.390;30.778;2023-04-07T15:09:27;100328.09;;;13.41;50.90
46448;BME280;32145;50.390;30.778;2023-04-07T15:12:24;100331.22;;;13.21;51.79
46448;BME280;32145;50.390;30.778;2023-04-07T15:15:20;100337.72;;;13.08;51.86
46448;BME280;32145;50.390;30.778;2023-04-07T15:18:17;100339.06;;;12.93;52.28
46448;BME280;32145;50.390;30.778;2023-04-07T15:21:13;100340.47;;;12.84;52.43
46448;BME280;32145;50.390;30.778;2023-04-07T15:24:09;100340.25;;;12.73;52.93